EmailTwitter


Surface observations / United Kingdom / EGLL (03772)

Regions: Quebec | Canada | USA | Europe | France | UK | Elsewhere
Station
Display
Info & Location for EGLL (03772) | Help decoding METAR

Weather Conditions observed on 2017/12/12 at 15:20 UTC at LONDON/HEATHROW, UK (EGLL)

Temperature: 3.0 Celsius.

Dewpoint: 0.0 Celsius.

Relative Humidity: 81%

Windchill Factor: 0.

Winds: Southwest at 13 km/h or 7 knots.

Mean Sea level Pressure: 101.00 kilopascals.

Horizontal visibility: 6.21 statute miles or 9.94 kilometers.

Coded METAR:

EGLL 121520Z AUTO 21007KT 180V260 9999 NCD 03/M00 Q1010=